Aviation Digital Data Service (ADDS)

Output produced by METARs form (0607 UTC 24 September 2018)
found at http://www.aviationweather.gov/metar/data/
 
KANB 240553Z AUTO 00000KT 10SM CLR 23/19 A3004 RMK AO2 SLP160 T02330189 10283 20222 403280200 50002
KANB 240536Z 2406/2506 09003KT P6SM VCSH BKN080 BKN170 
     FM241200 07006KT P6SM BKN025 
     FM241700 15008KT 6SM SHRA SCT025 BKN040 
     PROB30 2421/2503 4SM TSRA BKN025CB 
     FM250400 15005KT P6SM OVC100